Time;durP1;ratioP1;P1;durP2;ratioP2;P2;SDS_P1;SDS_P2;PMS_P1;PMS_P2;Temp;Humidity;BMP_temperature;BMP_pressure;BME280_temperature;BME280_humidity;BME280_pressure;Samples;Min_cycle;Max_cycle;Signal;HPM_P1;HPM_P2
2021/06/14 00:01:58;;;;;;;5.75;5.15;;;16.80;99.90;;;;;;5049549;28;20175;-91
2021/06/14 00:04:24;;;;;;;10.18;4.93;;;16.70;99.90;;;;;;5056166;28;20604;-92
2021/06/14 00:06:49;;;;;;;6.07;4.75;;;16.60;99.90;;;;;;5046319;28;20203;-91
2021/06/14 00:09:21;;;;;;;9.95;5.35;;;16.70;99.90;;;;;;5036308;28;20259;-91
2021/06/14 00:11:47;;;;;;;8.20;5.72;;;16.70;99.90;;;;;;5035284;28;20299;-91
2021/06/14 00:14:13;;;;;;;9.18;6.03;;;16.60;99.90;;;;;;5035016;28;20168;-91
2021/06/14 00:16:38;;;;;;;6.63;5.07;;;16.60;99.90;;;;;;5041648;28;20198;-91
2021/06/14 00:19:06;;;;;;;9.20;5.10;;;16.60;99.90;;;;;;5055038;28;20171;-92
2021/06/14 00:21:32;;;;;;;9.60;5.57;;;16.50;99.90;;;;;;5054069;28;20246;-92
2021/06/14 00:23:58;;;;;;;15.05;6.20;;;16.50;99.90;;;;;;5054733;28;20275;-92
2021/06/14 00:26:24;;;;;;;12.77;6.47;;;16.50;99.90;;;;;;5055061;28;20254;-91
2021/06/14 00:28:50;;;;;;;7.97;5.88;;;16.40;99.90;;;;;;5055466;28;20239;-88
2021/06/14 00:31:15;;;;;;;10.68;6.18;;;16.40;99.90;;;;;;5055765;28;20210;-88
2021/06/14 00:33:41;;;;;;;15.10;5.55;;;16.40;99.90;;;;;;5055060;28;20171;-85
2021/06/14 00:36:11;;;;;;;7.95;5.50;;;16.40;99.90;;;;;;5053350;28;20202;-85
2021/06/14 00:38:37;;;;;;;11.13;5.22;;;16.30;99.90;;;;;;5049357;28;20511;-85
2021/06/14 00:41:05;;;;;;;9.63;5.30;;;16.20;99.90;;;;;;5033813;28;20218;-85
2021/06/14 00:43:33;;;;;;;11.93;5.90;;;16.20;99.90;;;;;;5033746;28;20164;-84
2021/06/14 00:45:59;;;;;;;12.90;5.60;;;16.20;99.90;;;;;;5035402;28;20226;-85
2021/06/14 00:48:25;;;;;;;12.77;5.93;;;16.30;99.90;;;;;;5038707;28;20242;-85
2021/06/14 00:51:05;;;;;;;8.57;5.68;;;16.20;99.90;;;;;;5034589;28;20524;-85
2021/06/14 00:53:39;;;;;;;7.72;5.50;;;16.20;99.90;;;;;;5034868;28;20163;-85
2021/06/14 00:56:07;;;;;;;12.50;5.22;;;16.20;99.90;;;;;;5034568;28;20196;-85
2021/06/14 00:58:33;;;;;;;7.32;5.55;;;16.20;99.90;;;;;;5053548;28;20163;-85
2021/06/14 01:00:59;;;;;;;9.68;5.97;;;16.20;99.90;;;;;;5053468;28;20195;-85
2021/06/14 01:03:25;;;;;;;10.60;5.75;;;16.20;99.90;;;;;;5054504;28;20518;-85
2021/06/14 01:05:55;;;;;;;6.45;5.00;;;16.20;99.90;;;;;;5053528;28;20178;-86
2021/06/14 01:08:21;;;;;;;13.88;5.53;;;16.20;99.90;;;;;;5033637;28;20613;-86
2021/06/14 01:10:49;;;;;;;13.95;6.53;;;16.20;99.90;;;;;;5033205;28;20254;-86
2021/06/14 01:13:54;;;;;;;16.23;7.38;;;16.10;99.90;;;;;;5033346;28;20255;-85
2021/06/14 01:16:33;;;;;;;14.05;6.72;;;16.10;99.90;;;;;;5033946;28;20211;-85
2021/06/14 01:19:12;;;;;;;14.18;7.68;;;16.00;99.90;;;;;;5034692;28;20163;-85
2021/06/14 01:21:49;;;;;;;19.67;7.55;;;16.00;99.90;;;;;;5050164;28;20164;-86
2021/06/14 01:24:34;;;;;;;12.30;7.47;;;15.90;99.90;;;;;;5034427;28;20167;-85
2021/06/14 01:27:11;;;;;;;14.02;6.93;;;15.90;99.90;;;;;;5046017;28;20171;-86
2021/06/14 01:29:38;;;;;;;12.57;7.65;;;15.90;99.90;;;;;;5069623;28;20191;-86
2021/06/14 01:32:07;;;;;;;14.63;6.97;;;15.70;99.90;;;;;;5053322;28;20159;-86
2021/06/14 01:34:37;;;;;;;11.55;6.82;;;15.80;99.90;;;;;;5052666;28;20216;-86
2021/06/14 01:37:03;;;;;;;9.32;6.72;;;15.70;99.90;;;;;;5042032;28;20195;-86
2021/06/14 01:39:34;;;;;;;10.55;6.65;;;15.70;99.90;;;;;;5016657;28;20186;-86
2021/06/14 01:42:00;;;;;;;9.20;6.68;;;15.70;99.90;;;;;;5033203;28;20164;-86
2021/06/14 01:44:27;;;;;;;9.68;7.13;;;15.60;99.90;;;;;;5049610;28;20172;-85
2021/06/14 01:46:56;;;;;;;6.93;6.22;;;15.70;99.90;;;;;;5047165;28;20175;-86
2021/06/14 01:49:23;;;;;;;7.20;6.40;;;15.70;99.90;;;;;;5054229;28;20629;-86
2021/06/14 01:51:49;;;;;;;7.93;6.22;;;15.70;99.90;;;;;;5052817;28;20217;-87
2021/06/14 01:54:15;;;;;;;12.48;6.20;;;15.60;99.90;;;;;;5066900;28;20519;-86
2021/06/14 01:56:47;;;;;;;12.07;6.90;;;15.50;99.90;;;;;;5017267;28;20202;-86
2021/06/14 01:59:21;;;;;;;9.15;6.75;;;15.60;99.90;;;;;;5034004;28;20164;-85
2021/06/14 02:01:48;;;;;;;11.70;6.55;;;15.50;99.90;;;;;;5034266;28;20164;-86
2021/06/14 02:04:15;;;;;;;11.05;6.70;;;15.50;99.90;;;;;;5033004;28;20175;-85
2021/06/14 02:06:43;;;;;;;9.82;6.03;;;15.50;99.90;;;;;;5044422;28;20159;-86
2021/06/14 02:09:20;;;;;;;9.25;6.47;;;15.60;99.90;;;;;;5053883;28;20176;-85
2021/06/14 02:11:50;;;;;;;16.10;7.72;;;15.60;99.90;;;;;;5069591;28;20163;-86
2021/06/14 02:14:27;;;;;;;11.70;6.30;;;15.60;99.90;;;;;;5054066;28;20148;-86
2021/06/14 02:16:54;;;;;;;6.20;5.47;;;15.50;99.90;;;;;;5060026;28;20285;-86
2021/06/14 02:19:20;;;;;;;11.77;6.68;;;15.50;99.90;;;;;;5053589;28;20175;-86
2021/06/14 02:21:47;;;;;;;13.45;6.70;;;15.40;99.90;;;;;;5069653;28;20179;-86
2021/06/14 02:24:14;;;;;;;17.02;7.43;;;15.40;99.90;;;;;;5052867;28;20167;-85
2021/06/14 02:26:41;;;;;;;9.02;6.53;;;15.40;99.90;;;;;;5045657;28;20221;-85
2021/06/14 02:29:08;;;;;;;13.20;6.70;;;15.40;99.90;;;;;;5036552;28;20183;-86
2021/06/14 02:31:35;;;;;;;7.60;5.93;;;15.40;99.90;;;;;;5019819;28;20251;-85
2021/06/14 02:34:01;;;;;;;11.90;6.05;;;15.30;99.90;;;;;;5036279;28;20168;-85
2021/06/14 02:36:31;;;;;;;12.90;6.40;;;15.20;99.90;;;;;;5046442;28;20241;-85
2021/06/14 02:39:00;;;;;;;15.13;6.65;;;15.20;99.90;;;;;;5072449;28;20231;-85
2021/06/14 02:41:28;;;;;;;8.82;6.25;;;15.20;99.90;;;;;;5056618;28;20171;-85
2021/06/14 02:43:54;;;;;;;7.38;6.20;;;15.10;99.90;;;;;;5057367;28;20229;-85
2021/06/14 02:46:22;;;;;;;11.45;5.93;;;15.10;99.90;;;;;;5049796;28;20183;-85
2021/06/14 02:48:49;;;;;;;6.82;6.10;;;15.10;99.90;;;;;;5055944;28;20171;-85
2021/06/14 02:51:15;;;;;;;13.93;6.28;;;15.00;99.90;;;;;;5057035;28;20167;-85
2021/06/14 02:53:43;;;;;;;7.03;5.55;;;15.00;99.90;;;;;;5057165;28;20171;-85
2021/06/14 02:56:14;;;;;;;8.75;6.10;;;15.00;99.90;;;;;;5049976;28;20533;-86
2021/06/14 02:58:44;;;;;;;13.82;6.50;;;15.00;99.90;;;;;;5037251;28;20608;-86
2021/06/14 03:01:11;;;;;;;18.98;6.55;;;15.00;99.90;;;;;;5043145;28;20168;-86
2021/06/14 03:03:40;;;;;;;12.73;6.90;;;14.90;99.90;;;;;;5056807;28;20171;-85
2021/06/14 03:06:08;;;;;;;9.25;5.97;;;14.90;99.90;;;;;;5049531;28;20172;-86
2021/06/14 03:08:36;;;;;;;8.70;6.50;;;14.80;99.90;;;;;;5035824;28;20176;-86
2021/06/14 03:11:02;;;;;;;11.80;6.03;;;14.90;99.90;;;;;;5035824;28;20560;-86
2021/06/14 03:13:28;;;;;;;11.60;6.15;;;15.00;99.90;;;;;;5019247;28;20322;-86
2021/06/14 03:15:54;;;;;;;11.57;5.80;;;15.00;99.90;;;;;;5038848;28;20194;-86
2021/06/14 03:18:23;;;;;;;12.40;6.88;;;14.90;99.90;;;;;;5037095;28;20183;-86
2021/06/14 03:20:55;;;;;;;7.88;6.03;;;15.00;99.90;;;;;;5036784;28;20160;-86
2021/06/14 03:23:20;;;;;;;8.48;5.72;;;14.90;99.90;;;;;;5036528;28;20601;-86
2021/06/14 03:25:46;;;;;;;15.20;6.18;;;14.90;99.90;;;;;;5037718;28;20250;-86
2021/06/14 03:28:15;;;;;;;6.07;5.47;;;15.00;99.90;;;;;;5055260;28;20187;-86
2021/06/14 03:30:42;;;;;;;15.75;6.15;;;15.00;99.90;;;;;;5056193;28;20242;-86
2021/06/14 03:33:09;;;;;;;6.20;5.50;;;15.00;99.90;;;;;;5055015;28;20262;-85
2021/06/14 03:35:35;;;;;;;6.38;5.78;;;15.00;99.90;;;;;;5070909;28;20515;-85
2021/06/14 03:38:02;;;;;;;10.55;5.45;;;14.90;99.90;;;;;;5051912;28;20176;-85
2021/06/14 03:40:28;;;;;;;10.60;5.70;;;14.90;99.90;;;;;;5035384;28;20246;-85
2021/06/14 03:43:05;;;;;;;8.13;6.07;;;15.00;99.90;;;;;;5034902;28;20593;-85
2021/06/14 03:45:32;;;;;;;10.98;6.13;;;15.10;99.90;;;;;;5035075;28;20160;-85
2021/06/14 03:47:58;;;;;;;12.38;6.47;;;15.00;99.90;;;;;;5084383;28;20167;-85
2021/06/14 03:50:24;;;;;;;9.57;5.70;;;15.00;99.90;;;;;;5054872;28;20217;-85
2021/06/14 03:52:50;;;;;;;10.10;5.93;;;15.00;99.90;;;;;;5055771;28;20630;-85
2021/06/14 03:55:16;;;;;;;14.80;7.10;;;15.00;99.90;;;;;;5071211;28;20175;-85
2021/06/14 03:57:42;;;;;;;12.95;6.00;;;15.10;99.90;;;;;;5053536;28;20220;-85
2021/06/14 04:00:10;;;;;;;9.93;5.90;;;15.10;99.90;;;;;;5036078;28;20202;-85
2021/06/14 04:02:36;;;;;;;18.40;6.82;;;15.20;99.90;;;;;;5034813;28;20164;-85
2021/06/14 04:05:03;;;;;;;10.77;6.55;;;15.20;99.90;;;;;;5034725;28;20167;-85
2021/06/14 04:07:28;;;;;;;8.55;6.60;;;15.20;99.90;;;;;;5050071;28;20175;-84
2021/06/14 04:09:59;;;;;;;6.57;5.93;;;15.20;99.90;;;;;;5071394;28;20190;-85
2021/06/14 04:12:24;;;;;;;14.60;7.57;;;15.30;99.90;;;;;;5054826;28;20242;-85
2021/06/14 04:14:50;;;;;;;11.85;5.88;;;15.30;99.90;;;;;;5055732;28;20191;-86
2021/06/14 04:17:15;;;;;;;10.18;5.60;;;15.30;99.90;;;;;;5052596;28;20257;-85
2021/06/14 04:19:41;;;;;;;15.52;6.60;;;15.20;99.90;;;;;;5054745;28;20625;-85
2021/06/14 04:22:07;;;;;;;11.55;5.70;;;15.30;99.90;;;;;;5071139;28;20191;-85
2021/06/14 04:24:32;;;;;;;10.48;5.88;;;15.40;99.90;;;;;;5054301;28;20326;-85
2021/06/14 04:26:58;;;;;;;6.10;5.50;;;15.40;99.90;;;;;;5059722;28;20175;-86
2021/06/14 04:29:24;;;;;;;10.40;6.13;;;15.50;99.90;;;;;;5034120;28;20160;-85
2021/06/14 04:31:49;;;;;;;7.45;5.68;;;15.50;99.90;;;;;;5034217;28;20179;-85
2021/06/14 04:34:15;;;;;;;9.30;6.10;;;15.60;99.90;;;;;;5033996;28;20176;-85
2021/06/14 04:36:41;;;;;;;9.25;4.88;;;15.80;99.90;;;;;;5043125;28;20192;-85
2021/06/14 04:39:07;;;;;;;7.00;5.22;;;16.50;99.90;;;;;;5055056;28;20167;-85
2021/06/14 04:41:32;;;;;;;9.25;5.10;;;17.60;99.90;;;;;;5070450;28;20160;-85
2021/06/14 04:44:01;;;;;;;5.55;4.53;;;18.40;99.90;;;;;;5054921;28;20600;-85
2021/06/14 04:46:26;;;;;;;6.40;4.18;;;19.10;99.90;;;;;;5053115;28;20167;-85
2021/06/14 04:48:52;;;;;;;10.02;4.50;;;20.40;99.90;;;;;;5053152;28;20163;-85
2021/06/14 04:51:18;;;;;;;7.80;4.18;;;21.70;99.90;;;;;;5054761;28;20164;-85
2021/06/14 04:53:44;;;;;;;5.63;4.05;;;22.80;99.90;;;;;;5053566;28;20255;-85
2021/06/14 04:56:10;;;;;;;5.57;4.10;;;23.80;99.90;;;;;;5067744;28;20203;-85
2021/06/14 04:58:36;;;;;;;6.95;4.25;;;24.50;99.90;;;;;;5034587;28;20167;-85
2021/06/14 05:01:03;;;;;;;10.52;3.80;;;25.00;99.90;;;;;;5033248;28;20172;-86
2021/06/14 05:03:29;;;;;;;9.82;3.80;;;25.70;99.90;;;;;;5034489;28;20667;-86
2021/06/14 05:05:54;;;;;;;9.90;3.65;;;26.50;99.90;;;;;;5035327;28;20238;-85
2021/06/14 05:08:20;;;;;;;4.90;3.58;;;27.30;99.90;;;;;;5053972;28;20517;-85
2021/06/14 05:10:47;;;;;;;9.43;3.65;;;28.00;99.90;;;;;;5054231;28;20167;-85
2021/06/14 05:13:14;;;;;;;8.45;4.00;;;28.60;99.90;;;;;;5054190;28;20623;-85
2021/06/14 05:15:39;;;;;;;8.35;3.78;;;29.10;99.90;;;;;;5053084;28;20513;-86
2021/06/14 05:18:06;;;;;;;7.05;3.53;;;29.50;99.90;;;;;;5052387;28;20182;-85
2021/06/14 05:20:31;;;;;;;5.13;3.65;;;29.80;99.90;;;;;;5053928;28;20607;-85
2021/06/14 05:22:58;;;;;;;14.68;3.63;;;30.20;99.90;;;;;;5053600;28;20262;-85
2021/06/14 05:25:24;;;;;;;3.33;2.83;;;30.70;99.90;;;;;;5053931;28;20167;-86
2021/06/14 05:27:50;;;;;;;6.95;3.80;;;31.20;99.90;;;;;;5035434;28;20171;-85
2021/06/14 05:30:16;;;;;;;9.02;4.63;;;31.90;98.40;;;;;;5032500;28;20187;-86
2021/06/14 05:32:43;;;;;;;9.98;4.47;;;32.60;96.50;;;;;;5033901;28;20159;-86
2021/06/14 05:35:10;;;;;;;6.25;3.40;;;33.20;96.60;;;;;;5033679;28;20164;-86
2021/06/14 05:37:36;;;;;;;7.35;3.38;;;33.80;96.20;;;;;;5047589;28;20283;-86
2021/06/14 05:40:06;;;;;;;4.75;3.58;;;34.40;93.50;;;;;;5052489;28;20173;-86
2021/06/14 05:42:32;;;;;;;7.57;3.90;;;34.80;92.00;;;;;;5053669;28;20577;-86
2021/06/14 05:44:58;;;;;;;5.80;3.47;;;35.20;91.00;;;;;;5053338;28;20572;-86
2021/06/14 05:47:24;;;;;;;7.10;3.60;;;35.60;88.80;;;;;;5052245;28;20258;-86
2021/06/14 05:49:49;;;;;;;12.98;3.45;;;36.20;87.70;;;;;;5053514;28;20171;-86
2021/06/14 05:52:15;;;;;;;8.25;3.40;;;36.70;83.70;;;;;;5052375;28;20193;-86
2021/06/14 05:54:41;;;;;;;7.85;2.95;;;36.90;81.00;;;;;;5053241;28;20173;-86
2021/06/14 05:57:07;;;;;;;3.92;3.55;;;37.30;80.40;;;;;;5042063;28;20199;-86
2021/06/14 05:59:33;;;;;;;6.82;4.20;;;37.60;77.10;;;;;;5033277;28;20638;-85
2021/06/14 06:01:59;;;;;;;9.80;3.95;;;37.70;77.60;;;;;;5037685;28;20186;-84
2021/06/14 06:04:25;;;;;;;9.98;3.65;;;38.20;73.70;;;;;;5036270;28;20167;-85
2021/06/14 06:06:51;;;;;;;8.25;3.58;;;38.40;71.60;;;;;;5046058;28;20213;-85
2021/06/14 06:09:16;;;;;;;11.27;3.63;;;38.80;71.10;;;;;;5057515;28;20626;-85
2021/06/14 06:11:42;;;;;;;9.68;4.10;;;39.00;72.70;;;;;;5057742;28;20163;-85
2021/06/14 06:14:08;;;;;;;8.27;4.53;;;39.40;71.10;;;;;;5072899;28;20490;-85
2021/06/14 06:16:33;;;;;;;6.18;3.47;;;39.50;70.50;;;;;;5068133;28;20619;-85
2021/06/14 06:18:59;;;;;;;5.47;3.55;;;39.50;71.10;;;;;;5056701;28;20693;-85
2021/06/14 06:21:25;;;;;;;7.55;4.18;;;39.60;70.50;;;;;;5043905;28;20207;-85
2021/06/14 06:23:50;;;;;;;10.57;3.55;;;39.60;70.00;;;;;;5037242;28;20250;-85
2021/06/14 06:26:16;;;;;;;11.70;4.32;;;39.80;68.50;;;;;;5040123;28;20525;-86
2021/06/14 06:28:42;;;;;;;16.23;3.80;;;39.80;67.80;;;;;;5057332;28;20177;-86
2021/06/14 06:31:10;;;;;;;8.85;2.95;;;39.80;69.00;;;;;;5055619;28;20194;-85
2021/06/14 06:33:37;;;;;;;6.65;3.38;;;39.40;65.90;;;;;;5057006;28;20619;-85
2021/06/14 06:36:03;;;;;;;9.27;3.70;;;39.00;67.20;;;;;;5069186;28;20202;-83
2021/06/14 06:38:29;;;;;;;7.18;3.97;;;38.40;67.60;;;;;;5037060;28;20247;-85
2021/06/14 06:40:55;;;;;;;7.05;3.28;;;38.30;67.90;;;;;;5036886;28;20665;-85
2021/06/14 06:43:21;;;;;;;7.88;3.95;;;37.90;67.50;;;;;;5036898;28;20175;-84
2021/06/14 06:45:46;;;;;;;5.82;3.30;;;37.60;68.30;;;;;;5036923;28;20623;-84
2021/06/14 06:48:12;;;;;;;6.45;2.90;;;37.60;69.10;;;;;;5055027;28;20210;-84
2021/06/14 06:50:38;;;;;;;9.20;3.13;;;37.10;69.90;;;;;;5056778;28;20163;-83
2021/06/14 06:53:03;;;;;;;5.88;3.67;;;37.00;69.60;;;;;;5056682;28;20647;-83
2021/06/14 06:55:30;;;;;;;5.28;3.20;;;36.80;71.00;;;;;;5056368;28;20265;-86
2021/06/14 06:57:56;;;;;;;12.50;3.72;;;36.90;69.30;;;;;;5039927;28;20229;-85
2021/06/14 07:00:23;;;;;;;7.25;3.22;;;37.20;69.90;;;;;;5068638;28;20171;-85
2021/06/14 07:02:50;;;;;;;5.95;3.03;;;38.00;69.50;;;;;;5035318;28;20171;-84
2021/06/14 07:05:15;;;;;;;13.55;3.55;;;37.80;68.90;;;;;;5043883;28;20178;-84
2021/06/14 07:07:43;;;;;;;6.63;3.45;;;38.30;67.70;;;;;;5041932;28;20237;-83
2021/06/14 07:10:10;;;;;;;6.50;3.53;;;38.70;66.80;;;;;;5036386;28;20159;-84
2021/06/14 07:12:39;;;;;;;6.00;3.17;;;38.60;66.70;;;;;;5035741;28;20225;-83
2021/06/14 07:15:07;;;;;;;7.80;2.92;;;38.50;68.80;;;;;;5035104;28;20263;-83
2021/06/14 07:17:33;;;;;;;10.35;3.00;;;39.00;67.30;;;;;;5052100;28;20195;-83
2021/06/14 07:19:58;;;;;;;11.38;2.92;;;39.50;67.90;;;;;;5050825;28;20217;-82
2021/06/14 07:22:24;;;;;;;12.70;3.17;;;40.10;66.70;;;;;;5071393;28;20206;-81
2021/06/14 07:24:50;;;;;;;8.95;3.05;;;40.20;66.40;;;;;;5054773;28;20205;-81
2021/06/14 07:27:15;;;;;;;9.02;2.90;;;40.90;66.30;;;;;;5056920;28;20539;-80
2021/06/14 07:29:41;;;;;;;10.25;3.05;;;41.60;62.90;;;;;;5035894;28;20195;-80
2021/06/14 07:32:07;;;;;;;12.68;3.40;;;40.90;63.80;;;;;;5035748;28;20171;-80
2021/06/14 07:34:33;;;;;;;7.32;2.90;;;40.40;63.60;;;;;;5035954;28;20613;-80
2021/06/14 07:36:59;;;;;;;8.30;2.75;;;39.70;63.20;;;;;;5046732;28;20283;-81
2021/06/14 07:39:24;;;;;;;7.55;3.42;;;39.40;66.60;;;;;;5032255;28;20183;-81
2021/06/14 07:41:50;;;;;;;5.82;2.55;;;39.70;64.80;;;;;;5035331;28;20167;-81
2021/06/14 07:44:16;;;;;;;7.53;3.38;;;40.10;64.50;;;;;;5036550;28;20175;-81
2021/06/14 07:46:41;;;;;;;3.92;2.58;;;40.50;64.40;;;;;;5034507;28;20286;-81
2021/06/14 07:49:07;;;;;;;8.02;2.95;;;40.70;64.50;;;;;;5035579;28;20294;-81
2021/06/14 07:51:33;;;;;;;10.60;2.92;;;40.60;62.50;;;;;;5043925;28;20174;-81
2021/06/14 07:53:58;;;;;;;13.25;3.20;;;39.60;63.70;;;;;;5047831;28;20175;-82
2021/06/14 07:56:24;;;;;;;6.25;2.40;;;39.00;64.30;;;;;;5035374;28;20191;-80
2021/06/14 07:58:50;;;;;;;6.43;2.70;;;38.20;65.20;;;;;;5035505;28;20159;-82
2021/06/14 08:01:17;;;;;;;6.97;2.92;;;38.60;66.30;;;;;;5034392;28;20174;-81
2021/06/14 08:03:42;;;;;;;4.85;2.67;;;38.20;65.80;;;;;;5035522;28;20168;-81
2021/06/14 08:06:08;;;;;;;11.73;2.85;;;38.20;67.60;;;;;;5035407;28;20225;-81
2021/06/14 08:08:34;;;;;;;13.48;3.00;;;37.60;67.90;;;;;;5029847;28;20175;-82
2021/06/14 08:11:01;;;;;;;11.20;2.70;;;37.90;68.00;;;;;;5037471;28;20211;-80
2021/06/14 08:13:27;;;;;;;9.98;3.00;;;38.80;68.60;;;;;;5055059;28;20159;-82
2021/06/14 08:15:53;;;;;;;5.72;2.50;;;39.00;66.80;;;;;;5054485;28;20194;-82
2021/06/14 08:19:25;;;;;;;5.72;2.88;;;39.70;66.00;;;;;;5050236;28;20170;-82
2021/06/14 08:21:27;;;;;;;7.65;3.38;;;39.20;65.20;;;;;;5025282;28;20167;-80
2021/06/14 08:26:38;;;;;;;8.85;2.70;;;39.50;66.20;;;;;;5034997;28;20229;-81
2021/06/14 08:29:04;;;;;;;7.25;3.20;;;39.10;64.50;;;;;;5033447;28;20180;-82
2021/06/14 08:31:32;;;;;;;11.48;3.28;;;39.20;66.50;;;;;;5040322;28;20213;-81
2021/06/14 08:33:58;;;;;;;16.77;3.42;;;40.10;66.20;;;;;;5052844;28;20194;-84
2021/06/14 08:36:24;;;;;;;7.53;2.28;;;40.80;64.90;;;;;;5054415;28;20244;-82
2021/06/14 08:38:50;;;;;;;13.88;2.90;;;41.10;63.70;;;;;;5053687;28;20226;-82
2021/06/14 08:41:18;;;;;;;14.02;2.50;;;40.80;60.00;;;;;;5049265;28;20168;-82
2021/06/14 08:43:47;;;;;;;9.38;2.70;;;40.50;61.10;;;;;;5034578;28;20164;-77
2021/06/14 08:46:13;;;;;;;13.32;3.22;;;40.10;61.10;;;;;;5033932;28;20259;-84
2021/06/14 08:48:41;;;;;;;13.73;2.92;;;39.50;63.50;;;;;;5034351;28;20205;-77
2021/06/14 08:51:08;;;;;;;7.88;2.45;;;39.30;61.60;;;;;;5036821;28;20183;-83
2021/06/14 08:53:36;;;;;;;10.70;3.03;;;39.00;63.30;;;;;;5053794;28;20175;-82
2021/06/14 08:56:02;;;;;;;11.80;3.20;;;39.00;63.90;;;;;;5052119;28;20261;-84
2021/06/14 08:58:29;;;;;;;27.35;3.75;;;38.20;64.20;;;;;;5051448;28;20188;-83
2021/06/14 09:00:56;;;;;;;6.65;2.47;;;38.50;63.80;;;;;;5053560;28;20171;-84
2021/06/14 09:03:24;;;;;;;7.60;3.03;;;38.70;64.90;;;;;;5053253;28;20167;-83
2021/06/14 09:05:50;;;;;;;7.35;2.90;;;38.90;62.30;;;;;;5038373;28;20203;-82
2021/06/14 09:08:15;;;;;;;13.48;3.40;;;38.70;63.60;;;;;;5054466;28;20633;-83
2021/06/14 09:10:41;;;;;;;6.18;3.28;;;38.60;63.80;;;;;;5053821;28;20471;-81
2021/06/14 09:13:11;;;;;;;11.43;2.78;;;39.10;63.40;;;;;;5053985;28;20186;-81
2021/06/14 09:15:37;;;;;;;9.32;2.35;;;39.40;61.50;;;;;;5053524;28;20245;-81
2021/06/14 09:18:14;;;;;;;16.25;3.42;;;39.10;65.00;;;;;;5045414;28;20182;-83
2021/06/14 09:20:51;;;;;;;11.45;2.90;;;39.90;63.80;;;;;;5033988;28;20151;-85
2021/06/14 09:23:16;;;;;;;7.18;2.92;;;39.70;63.40;;;;;;5033479;28;20151;-85
2021/06/14 09:25:47;;;;;;;11.57;2.65;;;39.90;61.80;;;;;;5046786;28;20608;-84
2021/06/14 09:28:13;;;;;;;8.25;3.20;;;40.50;63.60;;;;;;5044249;28;20170;-80
2021/06/14 09:30:39;;;;;;;10.90;3.03;;;41.00;61.20;;;;;;5032863;28;20179;-83
2021/06/14 09:33:19;;;;;;;10.23;2.72;;;41.20;62.60;;;;;;5032373;28;20171;-79
2021/06/14 09:35:45;;;;;;;6.43;2.47;;;41.90;61.70;;;;;;5033287;28;20171;-79
2021/06/14 09:38:14;;;;;;;8.75;2.70;;;43.10;61.90;;;;;;5041353;28;20530;-80
2021/06/14 09:40:57;;;;;;;6.65;2.35;;;43.00;60.00;;;;;;5053495;28;20618;-80
2021/06/14 09:43:22;;;;;;;5.50;2.33;;;42.10;62.00;;;;;;5052309;28;20171;-82
2021/06/14 09:45:48;;;;;;;11.18;2.53;;;42.30;61.70;;;;;;5052919;28;20159;-83
2021/06/14 09:48:16;;;;;;;7.47;2.45;;;41.80;61.00;;;;;;5042184;28;20182;-82
2021/06/14 09:50:44;;;;;;;9.23;2.72;;;42.70;62.00;;;;;;5033426;28;20219;-80
2021/06/14 09:53:12;;;;;;;4.90;2.17;;;43.20;60.90;;;;;;5033298;28;20167;-79
2021/06/14 09:55:40;;;;;;;5.10;2.40;;;44.40;59.00;;;;;;5044656;28;20170;-80
2021/06/14 09:58:14;;;;;;;9.27;1.95;;;44.80;59.50;;;;;;5043197;28;20171;-79
2021/06/14 10:00:54;;;;;;;6.35;2.17;;;44.40;58.30;;;;;;5033534;28;20219;-84
2021/06/14 10:03:38;;;;;;;8.88;2.10;;;43.70;59.80;;;;;;5032431;28;20258;-86
2021/06/14 10:06:04;;;;;;;7.93;2.10;;;43.90;60.10;;;;;;5033776;28;20243;-84
2021/06/14 10:08:32;;;;;;;12.38;2.05;;;43.90;59.00;;;;;;5031634;28;20605;-84
2021/06/14 10:11:11;;;;;;;12.90;2.40;;;44.50;57.30;;;;;;5033270;28;20166;-85
2021/06/14 10:13:41;;;;;;;4.15;2.03;;;44.40;57.30;;;;;;5033240;28;20163;-85
2021/06/14 10:16:10;;;;;;;6.75;2.08;;;44.20;58.30;;;;;;5032873;28;20187;-84
2021/06/14 10:18:43;;;;;;;8.50;2.22;;;44.20;57.40;;;;;;5048705;28;20182;-78
2021/06/14 10:21:27;;;;;;;6.25;2.25;;;44.90;58.50;;;;;;5053294;28;20151;-80
2021/06/14 10:23:55;;;;;;;6.55;1.90;;;45.30;55.90;;;;;;5067151;28;20166;-82
2021/06/14 10:26:21;;;;;;;5.15;2.10;;;45.50;56.30;;;;;;5033228;28;20191;-82
2021/06/14 10:28:48;;;;;;;11.55;2.47;;;45.90;56.50;;;;;;5048223;28;20174;-84
2021/06/14 10:31:14;;;;;;;7.70;2.28;;;44.60;56.90;;;;;;5068074;28;20281;-83
2021/06/14 10:33:41;;;;;;;6.25;2.20;;;44.30;57.20;;;;;;5051920;28;20266;-82
2021/06/14 10:36:07;;;;;;;2.40;1.80;;;43.40;56.90;;;;;;5052147;28;20202;-87
2021/06/14 10:38:37;;;;;;;12.07;2.30;;;44.40;57.00;;;;;;5036836;28;20518;-86
2021/06/14 10:41:03;;;;;;;4.47;1.75;;;45.10;58.20;;;;;;5031767;28;20175;-85
2021/06/14 10:43:29;;;;;;;2.38;1.75;;;45.10;56.50;;;;;;5033465;28;20235;-86
2021/06/14 10:45:56;;;;;;;8.13;2.15;;;44.30;56.50;;;;;;5033771;28;20168;-86
2021/06/14 10:48:34;;;;;;;3.85;2.20;;;44.10;56.20;;;;;;5048777;28;20253;-86
2021/06/14 10:51:03;;;;;;;7.22;2.25;;;44.30;56.90;;;;;;5056661;28;20500;-86
2021/06/14 10:53:32;;;;;;;3.75;1.83;;;44.50;56.70;;;;;;5056968;28;20159;-83
2021/06/14 10:56:02;;;;;;;10.10;2.47;;;43.90;57.60;;;;;;5038857;28;20199;-86
2021/06/14 10:58:30;;;;;;;10.35;1.92;;;42.60;56.80;;;;;;5051679;28;20167;-85
2021/06/14 11:01:02;;;;;;;4.60;1.80;;;42.60;58.40;;;;;;5056746;28;20198;-86
2021/06/14 11:03:46;;;;;;;7.40;2.10;;;42.00;59.10;;;;;;5046561;28;20176;-85
2021/06/14 11:06:20;;;;;;;2.22;1.58;;;41.70;58.30;;;;;;5036569;28;20156;-84
2021/06/14 11:09:00;;;;;;;2.80;1.88;;;41.60;58.60;;;;;;5054425;28;20174;-86
2021/06/14 11:11:26;;;;;;;3.67;1.75;;;41.90;58.90;;;;;;5071889;28;20174;-86
2021/06/14 11:13:52;;;;;;;4.57;1.70;;;41.90;58.70;;;;;;5055380;28;20608;-87
2021/06/14 11:16:19;;;;;;;2.70;1.70;;;43.20;56.30;;;;;;5056811;28;20199;-88
2021/06/14 11:18:45;;;;;;;1.90;1.50;;;43.10;58.50;;;;;;5058338;28;20607;-87
2021/06/14 11:21:19;;;;;;;4.15;1.70;;;43.60;57.70;;;;;;5057606;28;20620;-88
2021/06/14 11:23:47;;;;;;;2.97;1.65;;;44.10;55.60;;;;;;5056669;28;20151;-87
2021/06/14 11:26:28;;;;;;;3.38;1.70;;;43.60;56.50;;;;;;5037613;28;20182;-87
2021/06/14 11:28:54;;;;;;;2.67;1.85;;;43.70;56.50;;;;;;5035725;28;20159;-87
2021/06/14 11:31:28;;;;;;;1.67;1.58;;;43.40;54.90;;;;;;5036427;28;20175;-87
2021/06/14 11:34:03;;;;;;;2.67;1.80;;;43.30;56.60;;;;;;5036612;28;20203;-88
2021/06/14 11:36:35;;;;;;;7.57;1.90;;;43.10;56.10;;;;;;5053678;28;20197;-89
2021/06/14 11:39:15;;;;;;;4.97;1.60;;;42.00;56.40;;;;;;5072025;28;20174;-88
2021/06/14 11:41:41;;;;;;;7.03;1.70;;;41.90;56.70;;;;;;5055075;28;20230;-88
2021/06/14 11:44:29;;;;;;;17.90;4.25;;;42.20;56.50;;;;;;5055181;28;20194;-88
2021/06/14 11:47:00;;;;;;;2.28;1.42;;;41.30;56.50;;;;;;5056339;28;20181;-89
2021/06/14 11:49:35;;;;;;;4.05;1.65;;;41.40;56.70;;;;;;5056282;28;20197;-89
2021/06/14 11:52:04;;;;;;;2.72;1.60;;;42.10;57.10;;;;;;5071673;28;20167;-89
2021/06/14 11:54:31;;;;;;;2.25;1.38;;;42.80;56.50;;;;;;5067138;28;20171;-88
2021/06/14 11:57:00;;;;;;;5.30;1.48;;;41.30;56.60;;;;;;5036088;28;20643;-88
2021/06/14 11:59:36;;;;;;;4.55;1.90;;;40.20;57.00;;;;;;5034840;28;20221;-87
2021/06/14 12:02:04;;;;;;;1.85;1.45;;;40.00;58.70;;;;;;5036156;28;20172;-87
2021/06/14 12:04:30;;;;;;;2.08;1.88;;;40.20;57.50;;;;;;5034742;28;20191;-87
2021/06/14 12:06:57;;;;;;;5.88;1.73;;;39.60;57.50;;;;;;5036000;28;20190;-87
2021/06/14 12:09:26;;;;;;;8.45;2.08;;;39.10;60.10;;;;;;5034973;28;20160;-87
2021/06/14 12:12:04;;;;;;;5.88;1.85;;;38.80;59.30;;;;;;5035780;28;20173;-88
2021/06/14 12:14:32;;;;;;;3.72;1.70;;;38.60;59.90;;;;;;5034793;28;20175;-87
2021/06/14 12:17:06;;;;;;;2.65;1.55;;;38.30;59.50;;;;;;5035548;28;20199;-88
2021/06/14 12:19:38;;;;;;;3.05;1.55;;;37.90;58.30;;;;;;5034416;28;20194;-87
2021/06/14 12:22:08;;;;;;;3.15;1.52;;;35.90;63.30;;;;;;5034488;28;20171;-87
2021/06/14 12:24:35;;;;;;;3.15;2.30;;;34.40;65.60;;;;;;5042424;28;20611;-88
2021/06/14 12:27:04;;;;;;;3.97;1.50;;;33.30;69.50;;;;;;5054306;28;20228;-87
2021/06/14 12:29:30;;;;;;;4.90;1.80;;;32.70;70.10;;;;;;5055049;28;20155;-87
2021/06/14 12:32:11;;;;;;;2.33;1.65;;;32.30;65.00;;;;;;5055608;28;20627;-88
2021/06/14 12:34:39;;;;;;;7.47;2.00;;;32.10;66.60;;;;;;5055235;28;20250;-87
2021/06/14 12:37:10;;;;;;;3.05;1.60;;;31.80;70.20;;;;;;5070840;28;20206;-88
2021/06/14 12:39:36;;;;;;;3.10;1.95;;;31.60;67.20;;;;;;5055566;28;20162;-87
2021/06/14 12:42:03;;;;;;;7.35;1.88;;;31.30;68.90;;;;;;5054202;28;20217;-88
2021/06/14 12:44:29;;;;;;;4.90;1.77;;;31.00;67.80;;;;;;5053972;28;20163;-87
2021/06/14 12:46:55;;;;;;;4.97;1.70;;;31.10;70.90;;;;;;5054911;28;20177;-87
2021/06/14 12:49:25;;;;;;;7.70;2.25;;;31.10;71.60;;;;;;5070286;28;20171;-88
2021/06/14 12:51:51;;;;;;;3.78;1.90;;;31.10;71.50;;;;;;5070534;28;20228;-87